sensor_id;sensor_type;location;lat;lon;timestamp;pressure;altitude;pressure_sealevel;temperature;humidity
42519;BME280;28147;47.520;18.920;2022-09-24T00:00:46;98651.31;;;9.11;70.98
42519;BME280;28147;47.520;18.920;2022-09-24T00:03:22;98644.88;;;9.25;70.01
42519;BME280;28147;47.520;18.920;2022-09-24T00:05:52;98646.56;;;9.38;69.44
42519;BME280;28147;47.520;18.920;2022-09-24T00:08:18;98638.66;;;9.32;69.11
42519;BME280;28147;47.520;18.920;2022-09-24T00:10:46;98647.09;;;9.47;67.66
42519;BME280;28147;47.520;18.920;2022-09-24T00:13:15;98647.19;;;9.59;66.88
42519;BME280;28147;47.520;18.920;2022-09-24T00:15:46;98640.03;;;9.78;66.14
42519;BME280;28147;47.520;18.920;2022-09-24T00:18:13;98647.72;;;9.86;65.99
42519;BME280;28147;47.520;18.920;2022-09-24T00:20:39;98643.34;;;9.73;66.53
42519;BME280;28147;47.520;18.920;2022-09-24T00:23:06;98646.13;;;9.41;68.15
42519;BME280;28147;47.520;18.920;2022-09-24T00:25:32;98644.44;;;9.29;68.58
42519;BME280;28147;47.520;18.920;2022-09-24T00:28:17;98643.53;;;9.35;68.28
42519;BME280;28147;47.520;18.920;2022-09-24T00:30:43;98636.00;;;9.32;68.82
42519;BME280;28147;47.520;18.920;2022-09-24T00:33:10;98644.81;;;9.32;69.16
42519;BME280;28147;47.520;18.920;2022-09-24T00:35:36;98644.88;;;9.25;69.70
42519;BME280;28147;47.520;18.920;2022-09-24T00:38:02;98643.31;;;9.18;69.58
42519;BME280;28147;47.520;18.920;2022-09-24T00:40:31;98637.22;;;9.11;70.40
42519;BME280;28147;47.520;18.920;2022-09-24T00:42:57;98634.28;;;9.19;70.42
42519;BME280;28147;47.520;18.920;2022-09-24T00:45:23;98634.66;;;9.22;69.79
42519;BME280;28147;47.520;18.920;2022-09-24T00:47:50;98631.28;;;9.34;69.01
42519;BME280;28147;47.520;18.920;2022-09-24T00:50:23;98631.97;;;9.04;70.38
42519;BME280;28147;47.520;18.920;2022-09-24T00:52:53;98627.56;;;8.98;70.31
42519;BME280;28147;47.520;18.920;2022-09-24T00:55:21;98626.19;;;9.14;70.10
42519;BME280;28147;47.520;18.920;2022-09-24T00:57:50;98621.34;;;9.04;70.23
42519;BME280;28147;47.520;18.920;2022-09-24T01:00:17;98624.91;;;8.98;71.08
42519;BME280;28147;47.520;18.920;2022-09-24T01:02:45;98623.91;;;8.92;71.03
42519;BME280;28147;47.520;18.920;2022-09-24T01:05:12;98622.56;;;8.83;71.67
42519;BME280;28147;47.520;18.920;2022-09-24T01:07:38;98627.16;;;8.94;71.54
42519;BME280;28147;47.520;18.920;2022-09-24T01:10:04;98619.03;;;8.89;71.35
42519;BME280;28147;47.520;18.920;2022-09-24T01:12:46;98613.25;;;8.99;70.91
42519;BME280;28147;47.520;18.920;2022-09-24T01:17:53;98609.78;;;8.98;71.46
42519;BME280;28147;47.520;18.920;2022-09-24T01:31:44;98593.13;;;9.10;70.90
42519;BME280;28147;47.520;18.920;2022-09-24T01:34:14;98600.00;;;8.92;71.04
42519;BME280;28147;47.520;18.920;2022-09-24T01:36:44;98600.06;;;9.11;70.55
42519;BME280;28147;47.520;18.920;2022-09-24T01:39:11;98598.25;;;9.05;70.79
42519;BME280;28147;47.520;18.920;2022-09-24T01:41:40;98597.78;;;9.14;69.41
42519;BME280;28147;47.520;18.920;2022-09-24T01:44:08;98591.72;;;9.07;69.94
42519;BME280;28147;47.520;18.920;2022-09-24T01:46:37;98589.06;;;9.07;69.66
42519;BME280;28147;47.520;18.920;2022-09-24T01:49:03;98584.56;;;9.08;70.31
42519;BME280;28147;47.520;18.920;2022-09-24T01:51:53;98583.97;;;9.06;70.19
42519;BME280;28147;47.520;18.920;2022-09-24T01:54:28;98586.50;;;9.19;68.92
42519;BME280;28147;47.520;18.920;2022-09-24T01:59:37;98587.47;;;9.24;68.33
42519;BME280;28147;47.520;18.920;2022-09-24T02:05:13;98584.78;;;9.43;66.98
42519;BME280;28147;47.520;18.920;2022-09-24T02:07:54;98592.41;;;9.39;67.58
42519;BME280;28147;47.520;18.920;2022-09-24T02:10:23;98587.00;;;9.46;66.46
42519;BME280;28147;47.520;18.920;2022-09-24T02:12:55;98589.28;;;9.24;67.63
42519;BME280;28147;47.520;18.920;2022-09-24T02:15:26;98595.28;;;9.38;66.94
42519;BME280;28147;47.520;18.920;2022-09-24T02:17:56;98591.94;;;9.24;68.16
42519;BME280;28147;47.520;18.920;2022-09-24T02:20:25;98588.56;;;9.17;68.05
42519;BME280;28147;47.520;18.920;2022-09-24T02:22:51;98591.38;;;9.40;67.63
42519;BME280;28147;47.520;18.920;2022-09-24T02:25:24;98589.75;;;9.21;67.50
42519;BME280;28147;47.520;18.920;2022-09-24T02:27:51;98585.31;;;9.15;67.78
42519;BME280;28147;47.520;18.920;2022-09-24T02:30:16;98589.06;;;9.07;68.52
42519;BME280;28147;47.520;18.920;2022-09-24T02:32:43;98591.75;;;9.00;68.68
42519;BME280;28147;47.520;18.920;2022-09-24T02:35:10;98596.22;;;9.07;68.71
42519;BME280;28147;47.520;18.920;2022-09-24T02:37:38;98592.69;;;9.31;66.79
42519;BME280;28147;47.520;18.920;2022-09-24T02:40:06;98585.00;;;9.23;66.98
42519;BME280;28147;47.520;18.920;2022-09-24T02:42:33;98585.41;;;9.01;68.15
42519;BME280;28147;47.520;18.920;2022-09-24T02:44:59;98594.94;;;8.91;69.35
42519;BME280;28147;47.520;18.920;2022-09-24T02:47:25;98589.09;;;9.00;68.27
42519;BME280;28147;47.520;18.920;2022-09-24T02:49:51;98586.69;;;8.99;69.01
42519;BME280;28147;47.520;18.920;2022-09-24T02:52:16;98593.88;;;9.17;68.18
42519;BME280;28147;47.520;18.920;2022-09-24T02:54:43;98588.81;;;8.90;69.61
42519;BME280;28147;47.520;18.920;2022-09-24T02:57:09;98592.47;;;8.89;69.93
42519;BME280;28147;47.520;18.920;2022-09-24T02:59:35;98598.34;;;8.73;70.43
42519;BME280;28147;47.520;18.920;2022-09-24T03:02:00;98594.44;;;8.75;70.28
42519;BME280;28147;47.520;18.920;2022-09-24T03:04:26;98587.50;;;8.99;69.87
42519;BME280;28147;47.520;18.920;2022-09-24T03:06:53;98585.56;;;8.88;70.21
42519;BME280;28147;47.520;18.920;2022-09-24T03:09:18;98579.44;;;8.88;70.42
42519;BME280;28147;47.520;18.920;2022-09-24T03:11:43;98575.59;;;8.84;70.10
42519;BME280;28147;47.520;18.920;2022-09-24T03:14:09;98574.31;;;8.86;69.74
42519;BME280;28147;47.520;18.920;2022-09-24T03:16:34;98574.03;;;8.76;70.82
42519;BME280;28147;47.520;18.920;2022-09-24T03:18:59;98573.69;;;8.91;69.54
42519;BME280;28147;47.520;18.920;2022-09-24T03:21:25;98564.75;;;8.85;69.93
42519;BME280;28147;47.520;18.920;2022-09-24T03:23:50;98568.16;;;8.92;69.67
42519;BME280;28147;47.520;18.920;2022-09-24T03:26:16;98565.66;;;9.16;68.75
42519;BME280;28147;47.520;18.920;2022-09-24T03:28:42;98548.94;;;9.15;68.35
42519;BME280;28147;47.520;18.920;2022-09-24T03:31:08;98555.28;;;9.14;68.54
42519;BME280;28147;47.520;18.920;2022-09-24T03:33:36;98556.78;;;9.29;67.52
42519;BME280;28147;47.520;18.920;2022-09-24T03:36:16;98562.22;;;9.34;67.25
42519;BME280;28147;47.520;18.920;2022-09-24T03:38:46;98559.13;;;9.55;65.96
42519;BME280;28147;47.520;18.920;2022-09-24T03:41:13;98555.56;;;9.43;66.76
42519;BME280;28147;47.520;18.920;2022-09-24T03:43:39;98558.69;;;9.21;68.49
42519;BME280;28147;47.520;18.920;2022-09-24T03:46:05;98553.81;;;9.18;69.09
42519;BME280;28147;47.520;18.920;2022-09-24T03:48:36;98543.69;;;8.90;69.58
42519;BME280;28147;47.520;18.920;2022-09-24T03:51:09;98552.06;;;8.87;70.71
42519;BME280;28147;47.520;18.920;2022-09-24T03:53:35;98541.56;;;8.74;71.30
42519;BME280;28147;47.520;18.920;2022-09-24T03:56:02;98545.59;;;9.01;69.12
42519;BME280;28147;47.520;18.920;2022-09-24T03:58:29;98544.88;;;9.31;66.85
42519;BME280;28147;47.520;18.920;2022-09-24T04:00:56;98548.41;;;9.62;64.41
42519;BME280;28147;47.520;18.920;2022-09-24T04:03:22;98544.28;;;9.29;67.36
42519;BME280;28147;47.520;18.920;2022-09-24T04:05:48;98546.06;;;9.35;67.29
42519;BME280;28147;47.520;18.920;2022-09-24T04:08:16;98546.22;;;9.59;66.10
42519;BME280;28147;47.520;18.920;2022-09-24T04:10:44;98539.19;;;9.46;66.65
42519;BME280;28147;47.520;18.920;2022-09-24T04:13:09;98540.84;;;9.77;64.00
42519;BME280;28147;47.520;18.920;2022-09-24T04:15:34;98542.97;;;9.87;62.65
42519;BME280;28147;47.520;18.920;2022-09-24T04:18:00;98541.41;;;9.97;63.26
42519;BME280;28147;47.520;18.920;2022-09-24T04:20:27;98543.28;;;9.79;64.54
42519;BME280;28147;47.520;18.920;2022-09-24T04:22:55;98544.41;;;9.71;65.32
42519;BME280;28147;47.520;18.920;2022-09-24T04:25:22;98544.78;;;9.56;66.20
42519;BME280;28147;47.520;18.920;2022-09-24T04:28:14;98547.41;;;9.93;64.84
42519;BME280;28147;47.520;18.920;2022-09-24T04:30:39;98538.78;;;9.79;65.61
42519;BME280;28147;47.520;18.920;2022-09-24T04:33:05;98531.47;;;9.74;65.67
42519;BME280;28147;47.520;18.920;2022-09-24T04:35:32;98540.19;;;9.82;65.53
42519;BME280;28147;47.520;18.920;2022-09-24T04:38:00;98539.38;;;9.81;64.78
42519;BME280;28147;47.520;18.920;2022-09-24T04:40:26;98547.28;;;9.69;66.21
42519;BME280;28147;47.520;18.920;2022-09-24T04:42:51;98531.88;;;9.41;67.78
42519;BME280;28147;47.520;18.920;2022-09-24T04:45:17;98538.09;;;9.35;68.26
42519;BME280;28147;47.520;18.920;2022-09-24T04:47:43;98544.72;;;9.26;69.04
42519;BME280;28147;47.520;18.920;2022-09-24T04:50:09;98549.31;;;9.19;70.17
42519;BME280;28147;47.520;18.920;2022-09-24T04:52:36;98556.47;;;9.37;69.04
42519;BME280;28147;47.520;18.920;2022-09-24T04:55:03;98553.94;;;9.42;68.99
42519;BME280;28147;47.520;18.920;2022-09-24T04:57:29;98550.41;;;9.48;70.24
42519;BME280;28147;47.520;18.920;2022-09-24T04:59:59;98547.31;;;9.51;69.39
42519;BME280;28147;47.520;18.920;2022-09-24T05:02:24;98540.66;;;9.60;69.42
42519;BME280;28147;47.520;18.920;2022-09-24T05:04:50;98554.63;;;9.56;70.73
42519;BME280;28147;47.520;18.920;2022-09-24T05:07:15;98542.44;;;9.66;71.03
42519;BME280;28147;47.520;18.920;2022-09-24T05:09:41;98537.41;;;9.88;70.52
42519;BME280;28147;47.520;18.920;2022-09-24T05:12:06;98540.22;;;9.93;71.29
42519;BME280;28147;47.520;18.920;2022-09-24T05:14:32;98530.81;;;10.21;71.02
42519;BME280;28147;47.520;18.920;2022-09-24T05:16:58;98530.22;;;10.19;71.40
42519;BME280;28147;47.520;18.920;2022-09-24T05:19:23;98527.72;;;10.24;71.72
42519;BME280;28147;47.520;18.920;2022-09-24T05:21:49;98527.44;;;10.56;71.68
42519;BME280;28147;47.520;18.920;2022-09-24T05:24:14;98526.53;;;10.62;70.83
42519;BME280;28147;47.520;18.920;2022-09-24T05:26:39;98532.78;;;10.79;70.62
42519;BME280;28147;47.520;18.920;2022-09-24T05:29:24;98534.88;;;11.01;70.38
42519;BME280;28147;47.520;18.920;2022-09-24T05:31:49;98528.03;;;11.05;69.73
42519;BME280;28147;47.520;18.920;2022-09-24T05:34:15;98524.56;;;10.92;70.56
42519;BME280;28147;47.520;18.920;2022-09-24T05:36:41;98534.63;;;11.02;71.14
42519;BME280;28147;47.520;18.920;2022-09-24T05:39:10;98535.56;;;11.08;69.50
42519;BME280;28147;47.520;18.920;2022-09-24T05:41:38;98531.28;;;11.07;68.97
42519;BME280;28147;47.520;18.920;2022-09-24T05:44:04;98535.44;;;11.26;69.12
42519;BME280;28147;47.520;18.920;2022-09-24T05:46:29;98531.47;;;11.40;69.59
42519;BME280;28147;47.520;18.920;2022-09-24T05:48:55;98534.13;;;11.40;70.12
42519;BME280;28147;47.520;18.920;2022-09-24T05:51:21;98541.91;;;11.30;70.23
42519;BME280;28147;47.520;18.920;2022-09-24T05:53:46;98544.47;;;11.37;70.74
42519;BME280;28147;47.520;18.920;2022-09-24T05:56:12;98549.81;;;11.65;69.70
42519;BME280;28147;47.520;18.920;2022-09-24T05:58:37;98552.72;;;11.64;70.04
42519;BME280;28147;47.520;18.920;2022-09-24T06:01:03;98533.66;;;11.84;69.27
42519;BME280;28147;47.520;18.920;2022-09-24T06:03:29;98554.03;;;12.02;69.24
42519;BME280;28147;47.520;18.920;2022-09-24T06:05:55;98560.78;;;12.38;69.46
42519;BME280;28147;47.520;18.920;2022-09-24T06:08:23;98551.97;;;12.21;70.11
42519;BME280;28147;47.520;18.920;2022-09-24T06:10:49;98558.28;;;12.48;68.16
42519;BME280;28147;47.520;18.920;2022-09-24T06:13:18;98557.25;;;12.66;69.71
42519;BME280;28147;47.520;18.920;2022-09-24T06:15:44;98548.84;;;12.74;69.49
42519;BME280;28147;47.520;18.920;2022-09-24T06:18:10;98546.88;;;12.86;66.69
42519;BME280;28147;47.520;18.920;2022-09-24T06:20:36;98556.13;;;12.96;69.68
42519;BME280;28147;47.520;18.920;2022-09-24T06:23:02;98547.31;;;12.61;67.25
42519;BME280;28147;47.520;18.920;2022-09-24T06:25:28;98552.63;;;12.78;67.51
42519;BME280;28147;47.520;18.920;2022-09-24T06:28:04;98553.19;;;12.80;68.26
42519;BME280;28147;47.520;18.920;2022-09-24T06:30:33;98555.94;;;12.85;66.48
42519;BME280;28147;47.520;18.920;2022-09-24T06:33:04;98565.63;;;13.08;65.14
42519;BME280;28147;47.520;18.920;2022-09-24T06:35:33;98562.91;;;12.86;64.44
42519;BME280;28147;47.520;18.920;2022-09-24T06:38:00;98567.69;;;12.84;61.20
42519;BME280;28147;47.520;18.920;2022-09-24T06:40:25;98570.03;;;12.98;63.22
42519;BME280;28147;47.520;18.920;2022-09-24T06:42:51;98554.59;;;13.38;62.08
42519;BME280;28147;47.520;18.920;2022-09-24T06:45:17;98556.91;;;13.30;59.69
42519;BME280;28147;47.520;18.920;2022-09-24T06:47:43;98561.53;;;13.01;61.84
42519;BME280;28147;47.520;18.920;2022-09-24T06:50:10;98555.06;;;12.80;64.54
42519;BME280;28147;47.520;18.920;2022-09-24T06:52:35;98569.38;;;12.57;64.46
42519;BME280;28147;47.520;18.920;2022-09-24T06:55:00;98572.22;;;12.50;65.81
42519;BME280;28147;47.520;18.920;2022-09-24T06:57:26;98564.38;;;12.77;65.00
42519;BME280;28147;47.520;18.920;2022-09-24T06:59:52;98575.44;;;13.03;63.73
42519;BME280;28147;47.520;18.920;2022-09-24T07:02:17;98567.69;;;12.51;62.60
42519;BME280;28147;47.520;18.920;2022-09-24T07:04:42;98576.44;;;12.97;62.84
42519;BME280;28147;47.520;18.920;2022-09-24T07:07:08;98578.28;;;12.96;61.39
42519;BME280;28147;47.520;18.920;2022-09-24T07:09:51;98583.78;;;13.23;62.38
42519;BME280;28147;47.520;18.920;2022-09-24T07:12:17;98582.97;;;13.06;61.88
42519;BME280;28147;47.520;18.920;2022-09-24T07:14:42;98588.47;;;13.16;62.11
42519;BME280;28147;47.520;18.920;2022-09-24T07:17:08;98582.28;;;13.49;62.35
42519;BME280;28147;47.520;18.920;2022-09-24T07:19:33;98594.69;;;13.38;62.27
42519;BME280;28147;47.520;18.920;2022-09-24T07:21:59;98596.94;;;13.47;61.09
42519;BME280;28147;47.520;18.920;2022-09-24T07:24:24;98600.00;;;13.33;60.21
42519;BME280;28147;47.520;18.920;2022-09-24T07:26:49;98601.50;;;13.29;60.53
42519;BME280;28147;47.520;18.920;2022-09-24T07:29:15;98594.75;;;13.44;59.75
42519;BME280;28147;47.520;18.920;2022-09-24T07:31:40;98597.06;;;13.35;58.91
42519;BME280;28147;47.520;18.920;2022-09-24T07:34:06;98603.91;;;13.48;61.19
42519;BME280;28147;47.520;18.920;2022-09-24T07:36:33;98605.41;;;13.82;61.94
42519;BME280;28147;47.520;18.920;2022-09-24T07:38:58;98608.03;;;13.77;59.15
42519;BME280;28147;47.520;18.920;2022-09-24T07:41:25;98602.94;;;13.76;58.57
42519;BME280;28147;47.520;18.920;2022-09-24T07:43:51;98608.66;;;13.84;57.48
42519;BME280;28147;47.520;18.920;2022-09-24T07:46:16;98611.31;;;14.28;57.25
42519;BME280;28147;47.520;18.920;2022-09-24T07:48:42;98615.94;;;14.11;57.35
42519;BME280;28147;47.520;18.920;2022-09-24T07:51:10;98611.16;;;14.13;56.77
42519;BME280;28147;47.520;18.920;2022-09-24T07:53:35;98619.03;;;13.59;57.36
42519;BME280;28147;47.520;18.920;2022-09-24T07:56:02;98596.81;;;13.58;57.23
42519;BME280;28147;47.520;18.920;2022-09-24T07:58:27;98607.16;;;13.94;57.49
42519;BME280;28147;47.520;18.920;2022-09-24T08:00:56;98607.88;;;14.33;57.82
42519;BME280;28147;47.520;18.920;2022-09-24T08:03:22;98604.38;;;14.05;57.75
42519;BME280;28147;47.520;18.920;2022-09-24T08:05:47;98607.94;;;14.43;57.91
42519;BME280;28147;47.520;18.920;2022-09-24T08:08:13;98606.81;;;14.12;58.54
42519;BME280;28147;47.520;18.920;2022-09-24T08:10:39;98608.16;;;13.87;58.59
42519;BME280;28147;47.520;18.920;2022-09-24T08:13:05;98593.44;;;14.39;58.04
42519;BME280;28147;47.520;18.920;2022-09-24T08:15:31;98597.88;;;14.77;57.49
42519;BME280;28147;47.520;18.920;2022-09-24T08:18:00;98595.41;;;14.49;56.94
42519;BME280;28147;47.520;18.920;2022-09-24T08:20:28;98608.25;;;14.47;56.78
42519;BME280;28147;47.520;18.920;2022-09-24T08:22:59;98610.72;;;14.26;55.58
42519;BME280;28147;47.520;18.920;2022-09-24T08:25:25;98591.06;;;14.43;55.63
42519;BME280;28147;47.520;18.920;2022-09-24T08:27:50;98599.75;;;14.28;55.89
42519;BME280;28147;47.520;18.920;2022-09-24T08:30:15;98595.09;;;14.40;55.17
42519;BME280;28147;47.520;18.920;2022-09-24T08:32:45;98576.72;;;14.27;53.86
42519;BME280;28147;47.520;18.920;2022-09-24T08:35:11;98589.56;;;15.16;54.21
42519;BME280;28147;47.520;18.920;2022-09-24T08:37:37;98591.78;;;14.92;54.67
42519;BME280;28147;47.520;18.920;2022-09-24T08:40:03;98588.38;;;15.02;53.46
42519;BME280;28147;47.520;18.920;2022-09-24T08:44:55;98587.13;;;15.15;53.71
42519;BME280;28147;47.520;18.920;2022-09-24T08:50:25;98586.19;;;15.94;52.27
42519;BME280;28147;47.520;18.920;2022-09-24T08:53:02;98582.88;;;15.66;52.39
42519;BME280;28147;47.520;18.920;2022-09-24T08:55:41;98582.72;;;15.98;51.54
42519;BME280;28147;47.520;18.920;2022-09-24T09:00:54;98591.91;;;15.55;50.81
42519;BME280;28147;47.520;18.920;2022-09-24T09:06:54;98579.16;;;15.30;51.01
42519;BME280;28147;47.520;18.920;2022-09-24T09:09:25;98572.03;;;15.51;52.83
42519;BME280;28147;47.520;18.920;2022-09-24T09:12:03;98567.31;;;15.21;53.07
42519;BME280;28147;47.520;18.920;2022-09-24T09:17:11;98569.94;;;15.11;52.44
42519;BME280;28147;47.520;18.920;2022-09-24T09:19:41;98559.38;;;15.41;51.82
42519;BME280;28147;47.520;18.920;2022-09-24T09:22:14;98570.09;;;15.89;51.28
42519;BME280;28147;47.520;18.920;2022-09-24T09:24:44;98567.00;;;16.84;52.27
42519;BME280;28147;47.520;18.920;2022-09-24T09:27:12;98557.25;;;17.23;49.86
42519;BME280;28147;47.520;18.920;2022-09-24T09:29:40;98559.19;;;16.72;49.68
42519;BME280;28147;47.520;18.920;2022-09-24T09:37:56;98556.06;;;15.71;48.24
42519;BME280;28147;47.520;18.920;2022-09-24T09:42:58;98549.78;;;16.64;47.82
42519;BME280;28147;47.520;18.920;2022-09-24T09:45:40;98558.34;;;16.36;49.14
42519;BME280;28147;47.520;18.920;2022-09-24T09:48:08;98557.97;;;15.76;48.25
42519;BME280;28147;47.520;18.920;2022-09-24T09:50:45;98551.16;;;15.58;49.66
42519;BME280;28147;47.520;18.920;2022-09-24T09:53:21;98557.13;;;15.75;48.24
42519;BME280;28147;47.520;18.920;2022-09-24T09:56:01;98554.59;;;16.62;49.63
42519;BME280;28147;47.520;18.920;2022-09-24T09:58:31;98562.66;;;16.21;49.25
42519;BME280;28147;47.520;18.920;2022-09-24T10:06:12;98552.38;;;15.98;50.49
42519;BME280;28147;47.520;18.920;2022-09-24T10:08:38;98554.50;;;15.91;51.08
42519;BME280;28147;47.520;18.920;2022-09-24T10:11:14;98552.88;;;15.85;51.24
42519;BME280;28147;47.520;18.920;2022-09-24T10:13:40;98557.03;;;15.60;52.00
42519;BME280;28147;47.520;18.920;2022-09-24T10:16:08;98547.19;;;15.71;51.66
42519;BME280;28147;47.520;18.920;2022-09-24T10:18:42;98550.78;;;15.97;52.24
42519;BME280;28147;47.520;18.920;2022-09-24T10:21:12;98556.19;;;16.07;53.08
42519;BME280;28147;47.520;18.920;2022-09-24T10:23:44;98534.69;;;16.12;52.43
42519;BME280;28147;47.520;18.920;2022-09-24T10:26:13;98544.66;;;16.27;52.81
42519;BME280;28147;47.520;18.920;2022-09-24T10:28:43;98541.47;;;16.40;51.86
42519;BME280;28147;47.520;18.920;2022-09-24T10:31:29;98554.00;;;15.99;51.83
42519;BME280;28147;47.520;18.920;2022-09-24T10:33:57;98540.63;;;16.19;51.79
42519;BME280;28147;47.520;18.920;2022-09-24T10:36:29;98537.63;;;16.00;52.00
42519;BME280;28147;47.520;18.920;2022-09-24T10:39:13;98519.41;;;16.89;50.90
42519;BME280;28147;47.520;18.920;2022-09-24T10:41:46;98519.28;;;17.40;49.63
42519;BME280;28147;47.520;18.920;2022-09-24T10:44:12;98520.94;;;17.26;49.53
42519;BME280;28147;47.520;18.920;2022-09-24T11:14:27;98502.59;;;17.43;45.63
42519;BME280;28147;47.520;18.920;2022-09-24T11:17:06;98510.31;;;17.60;45.94
42519;BME280;28147;47.520;18.920;2022-09-24T11:20:23;98504.09;;;17.65;45.46
42519;BME280;28147;47.520;18.920;2022-09-24T11:23:28;98494.84;;;17.32;45.99
42519;BME280;28147;47.520;18.920;2022-09-24T11:26:18;98495.56;;;17.42;45.07
42519;BME280;28147;47.520;18.920;2022-09-24T11:32:06;98494.34;;;17.14;46.98
42519;BME280;28147;47.520;18.920;2022-09-24T11:37:57;98487.38;;;16.93;45.42
42519;BME280;28147;47.520;18.920;2022-09-24T11:40:31;98471.59;;;17.51;45.02
42519;BME280;28147;47.520;18.920;2022-09-24T11:49:03;98480.13;;;18.13;43.80
42519;BME280;28147;47.520;18.920;2022-09-24T11:51:46;98471.69;;;18.24;44.21
42519;BME280;28147;47.520;18.920;2022-09-24T11:54:25;98470.28;;;18.32;46.04
42519;BME280;28147;47.520;18.920;2022-09-24T11:57:01;98472.81;;;17.74;44.44
42519;BME280;28147;47.520;18.920;2022-09-24T11:59:37;98475.41;;;17.94;43.81
42519;BME280;28147;47.520;18.920;2022-09-24T12:02:17;98472.78;;;18.23;44.58
42519;BME280;28147;47.520;18.920;2022-09-24T12:04:58;98463.69;;;18.14;44.27
42519;BME280;28147;47.520;18.920;2022-09-24T12:07:33;98437.81;;;18.18;44.12
42519;BME280;28147;47.520;18.920;2022-09-24T12:13:02;98457.69;;;17.29;45.30
42519;BME280;28147;47.520;18.920;2022-09-24T12:15:41;98457.50;;;17.10;45.94
42519;BME280;28147;47.520;18.920;2022-09-24T12:18:13;98459.44;;;16.94;46.69
42519;BME280;28147;47.520;18.920;2022-09-24T12:20:50;98462.09;;;17.09;46.89
42519;BME280;28147;47.520;18.920;2022-09-24T12:23:21;98452.38;;;17.13;47.01
42519;BME280;28147;47.520;18.920;2022-09-24T12:25:49;98447.19;;;17.32;47.09
42519;BME280;28147;47.520;18.920;2022-09-24T12:28:19;98450.72;;;17.27;46.05
42519;BME280;28147;47.520;18.920;2022-09-24T12:31:31;98452.09;;;17.15;46.51
42519;BME280;28147;47.520;18.920;2022-09-24T12:34:31;98449.69;;;17.13;47.70
42519;BME280;28147;47.520;18.920;2022-09-24T12:37:07;98446.16;;;17.23;48.05
42519;BME280;28147;47.520;18.920;2022-09-24T12:40:07;98439.50;;;17.00;48.45
42519;BME280;28147;47.520;18.920;2022-09-24T12:42:43;98443.03;;;16.90;47.42
42519;BME280;28147;47.520;18.920;2022-09-24T12:45:15;98431.22;;;16.81;47.65
42519;BME280;28147;47.520;18.920;2022-09-24T12:47:50;98440.41;;;16.75;47.90
42519;BME280;28147;47.520;18.920;2022-09-24T12:50:30;98438.50;;;16.81;49.05
42519;BME280;28147;47.520;18.920;2022-09-24T12:52:58;98437.44;;;16.76;48.13
42519;BME280;28147;47.520;18.920;2022-09-24T12:55:30;98438.75;;;16.74;49.06
42519;BME280;28147;47.520;18.920;2022-09-24T12:58:06;98436.63;;;16.61;48.20
42519;BME280;28147;47.520;18.920;2022-09-24T13:00:46;98433.66;;;16.62;48.30
42519;BME280;28147;47.520;18.920;2022-09-24T13:05:56;98426.41;;;16.68;49.12
42519;BME280;28147;47.520;18.920;2022-09-24T13:08:46;98424.75;;;16.92;49.70
42519;BME280;28147;47.520;18.920;2022-09-24T13:11:26;98421.28;;;16.76;50.23
42519;BME280;28147;47.520;18.920;2022-09-24T13:14:04;98424.47;;;16.99;50.83
42519;BME280;28147;47.520;18.920;2022-09-24T13:16:37;98431.44;;;17.05;48.30
42519;BME280;28147;47.520;18.920;2022-09-24T13:21:53;98430.66;;;16.89;48.56
42519;BME280;28147;47.520;18.920;2022-09-24T13:24:30;98427.91;;;17.10;49.59
42519;BME280;28147;47.520;18.920;2022-09-24T13:30:20;98407.41;;;17.24;47.79
42519;BME280;28147;47.520;18.920;2022-09-24T13:32:53;98398.94;;;17.46;47.60
42519;BME280;28147;47.520;18.920;2022-09-24T13:35:25;98414.91;;;17.27;47.56
42519;BME280;28147;47.520;18.920;2022-09-24T13:38:07;98412.69;;;17.44;47.99
42519;BME280;28147;47.520;18.920;2022-09-24T13:40:40;98406.38;;;17.20;47.43
42519;BME280;28147;47.520;18.920;2022-09-24T13:43:24;98404.44;;;17.25;47.38
42519;BME280;28147;47.520;18.920;2022-09-24T13:45:55;98403.63;;;17.25;48.46
42519;BME280;28147;47.520;18.920;2022-09-24T13:50:58;98406.47;;;16.94;49.00
42519;BME280;28147;47.520;18.920;2022-09-24T13:53:36;98394.34;;;16.97;50.03
42519;BME280;28147;47.520;18.920;2022-09-24T13:56:05;98404.09;;;16.77;49.14
42519;BME280;28147;47.520;18.920;2022-09-24T13:58:37;98393.91;;;16.54;49.42
42519;BME280;28147;47.520;18.920;2022-09-24T14:01:10;98390.13;;;16.55;49.11
42519;BME280;28147;47.520;18.920;2022-09-24T14:03:36;98395.75;;;16.59;48.22
42519;BME280;28147;47.520;18.920;2022-09-24T14:06:11;98400.31;;;16.68;48.32
42519;BME280;28147;47.520;18.920;2022-09-24T14:08:40;98392.00;;;16.54;49.04
42519;BME280;28147;47.520;18.920;2022-09-24T14:11:21;98401.69;;;16.61;49.38
42519;BME280;28147;47.520;18.920;2022-09-24T14:13:50;98400.34;;;16.78;49.56
42519;BME280;28147;47.520;18.920;2022-09-24T14:16:24;98393.91;;;16.74;49.45
42519;BME280;28147;47.520;18.920;2022-09-24T14:19:04;98392.28;;;16.63;49.35
42519;BME280;28147;47.520;18.920;2022-09-24T14:23:59;98394.44;;;16.56;48.96
42519;BME280;28147;47.520;18.920;2022-09-24T14:26:37;98394.44;;;16.61;49.26
42519;BME280;28147;47.520;18.920;2022-09-24T14:29:10;98393.59;;;16.71;49.33
42519;BME280;28147;47.520;18.920;2022-09-24T14:31:49;98385.03;;;16.64;49.33
42519;BME280;28147;47.520;18.920;2022-09-24T14:34:37;98386.31;;;16.87;48.89
42519;BME280;28147;47.520;18.920;2022-09-24T14:37:20;98384.72;;;16.70;49.05
42519;BME280;28147;47.520;18.920;2022-09-24T14:39:50;98378.31;;;16.56;49.10
42519;BME280;28147;47.520;18.920;2022-09-24T14:42:25;98382.06;;;16.60;49.58
42519;BME280;28147;47.520;18.920;2022-09-24T14:44:54;98374.00;;;16.60;49.47
42519;BME280;28147;47.520;18.920;2022-09-24T14:47:24;98388.25;;;16.61;49.52
42519;BME280;28147;47.520;18.920;2022-09-24T14:49:50;98381.56;;;16.53;49.53
42519;BME280;28147;47.520;18.920;2022-09-24T14:52:34;98388.50;;;16.64;49.79